sensor_id;sensor_type;location;lat;lon;timestamp;pressure;altitude;pressure_sealevel;temperature;humidity
4834;BME280;12895;51.064;7.028;2023-05-29T00:00:45;101119.75;;;17.02;55.95
4834;BME280;12895;51.064;7.028;2023-05-29T00:03:30;101117.72;;;16.97;55.95
4834;BME280;12895;51.064;7.028;2023-05-29T00:06:17;101123.06;;;16.95;55.98
4834;BME280;12895;51.064;7.028;2023-05-29T00:09:03;101126.63;;;16.95;56.39
4834;BME280;12895;51.064;7.028;2023-05-29T00:11:48;101132.72;;;16.88;55.71
4834;BME280;12895;51.064;7.028;2023-05-29T00:14:37;101134.00;;;16.82;55.95
4834;BME280;12895;51.064;7.028;2023-05-29T00:17:22;101141.34;;;16.79;56.21
4834;BME280;12895;51.064;7.028;2023-05-29T00:20:08;101133.22;;;16.81;56.02
4834;BME280;12895;51.064;7.028;2023-05-29T00:22:54;101130.16;;;16.79;56.51
4834;BME280;12895;51.064;7.028;2023-05-29T00:25:41;101131.44;;;16.73;56.26
4834;BME280;12895;51.064;7.028;2023-05-29T00:28:26;101127.63;;;16.70;56.75
4834;BME280;12895;51.064;7.028;2023-05-29T00:31:13;101125.38;;;16.69;56.69
4834;BME280;12895;51.064;7.028;2023-05-29T00:33:58;101128.16;;;16.64;56.80
4834;BME280;12895;51.064;7.028;2023-05-29T00:36:43;101129.66;;;16.54;56.53
4834;BME280;12895;51.064;7.028;2023-05-29T00:39:30;101137.78;;;16.52;56.91
4834;BME280;12895;51.064;7.028;2023-05-29T00:42:15;101141.84;;;16.51;57.24
4834;BME280;12895;51.064;7.028;2023-05-29T00:45:00;101140.31;;;16.50;57.37
4834;BME280;12895;51.064;7.028;2023-05-29T00:47:47;101145.38;;;16.46;57.70
4834;BME280;12895;51.064;7.028;2023-05-29T00:50:33;101145.38;;;16.46;57.64
4834;BME280;12895;51.064;7.028;2023-05-29T00:53:19;101156.56;;;16.46;57.00
4834;BME280;12895;51.064;7.028;2023-05-29T00:56:04;101156.53;;;16.40;57.15
4834;BME280;12895;51.064;7.028;2023-05-29T00:58:51;101154.00;;;16.37;56.83
4834;BME280;12895;51.064;7.028;2023-05-29T01:01:38;101157.25;;;16.35;56.87
4834;BME280;12895;51.064;7.028;2023-05-29T01:04:25;101156.22;;;16.33;57.01
4834;BME280;12895;51.064;7.028;2023-05-29T01:07:11;101155.97;;;16.31;57.26
4834;BME280;12895;51.064;7.028;2023-05-29T01:09:58;101161.03;;;16.27;57.14
4834;BME280;12895;51.064;7.028;2023-05-29T01:12:49;101166.09;;;16.23;57.13
4834;BME280;12895;51.064;7.028;2023-05-29T01:15:41;101164.56;;;16.22;57.14
4834;BME280;12895;51.064;7.028;2023-05-29T01:18:39;101167.09;;;16.20;56.73
4834;BME280;12895;51.064;7.028;2023-05-29T01:21:40;101158.47;;;16.12;57.03
4834;BME280;12895;51.064;7.028;2023-05-29T01:24:32;101154.41;;;16.08;56.82
4834;BME280;12895;51.064;7.028;2023-05-29T01:27:25;101162.22;;;16.04;57.20
4834;BME280;12895;51.064;7.028;2023-05-29T01:30:14;101171.59;;;16.01;57.27
4834;BME280;12895;51.064;7.028;2023-05-29T01:32:59;101169.53;;;15.96;57.16
4834;BME280;12895;51.064;7.028;2023-05-29T01:35:45;101167.75;;;15.93;57.42
4834;BME280;12895;51.064;7.028;2023-05-29T01:38:30;101168.78;;;15.90;56.68
4834;BME280;12895;51.064;7.028;2023-05-29T01:41:16;101170.75;;;15.84;57.03
4834;BME280;12895;51.064;7.028;2023-05-29T01:44:06;101186.72;;;15.78;56.91
4834;BME280;12895;51.064;7.028;2023-05-29T01:46:52;101190.22;;;15.73;56.61
4834;BME280;12895;51.064;7.028;2023-05-29T01:49:39;101186.63;;;15.67;56.47
4834;BME280;12895;51.064;7.028;2023-05-29T01:52:26;101191.69;;;15.63;56.35
4834;BME280;12895;51.064;7.028;2023-05-29T01:55:11;101198.72;;;15.53;57.16
4834;BME280;12895;51.064;7.028;2023-05-29T01:57:56;101186.28;;;15.48;56.91
4834;BME280;12895;51.064;7.028;2023-05-29T02:00:44;101197.66;;;15.45;56.87
4834;BME280;12895;51.064;7.028;2023-05-29T02:03:30;101206.53;;;15.43;57.13
4834;BME280;12895;51.064;7.028;2023-05-29T02:06:15;101195.88;;;15.42;57.37
4834;BME280;12895;51.064;7.028;2023-05-29T02:09:01;101202.94;;;15.37;57.38
4834;BME280;12895;51.064;7.028;2023-05-29T02:11:47;101207.22;;;15.33;57.65
4834;BME280;12895;51.064;7.028;2023-05-29T02:14:32;101211.19;;;15.26;57.84
4834;BME280;12895;51.064;7.028;2023-05-29T02:17:19;101217.25;;;15.25;57.94
4834;BME280;12895;51.064;7.028;2023-05-29T02:20:05;101232.16;;;15.22;57.96
4834;BME280;12895;51.064;7.028;2023-05-29T02:22:51;101226.78;;;15.13;57.93
4834;BME280;12895;51.064;7.028;2023-05-29T02:25:37;101221.66;;;15.06;57.93
4834;BME280;12895;51.064;7.028;2023-05-29T02:28:23;101238.78;;;14.99;58.42
4834;BME280;12895;51.064;7.028;2023-05-29T02:31:08;101236.72;;;14.94;58.47
4834;BME280;12895;51.064;7.028;2023-05-29T02:33:56;101228.81;;;14.87;58.97
4834;BME280;12895;51.064;7.028;2023-05-29T02:36:41;101227.25;;;14.80;58.75
4834;BME280;12895;51.064;7.028;2023-05-29T02:39:26;101225.41;;;14.72;59.19
4834;BME280;12895;51.064;7.028;2023-05-29T02:42:11;101223.56;;;14.69;59.12
4834;BME280;12895;51.064;7.028;2023-05-29T02:44:57;101236.19;;;14.64;59.36
4834;BME280;12895;51.064;7.028;2023-05-29T02:47:42;101237.94;;;14.62;59.56
4834;BME280;12895;51.064;7.028;2023-05-29T02:50:28;101250.31;;;14.61;59.82
4834;BME280;12895;51.064;7.028;2023-05-29T02:53:14;101238.63;;;14.57;60.40
4834;BME280;12895;51.064;7.028;2023-05-29T02:55:59;101227.25;;;14.55;60.09
4834;BME280;12895;51.064;7.028;2023-05-29T02:58:44;101232.25;;;14.51;60.37
4834;BME280;12895;51.064;7.028;2023-05-29T03:01:32;101243.38;;;14.51;60.38
4834;BME280;12895;51.064;7.028;2023-05-29T03:04:17;101232.75;;;14.49;60.82
4834;BME280;12895;51.064;7.028;2023-05-29T03:07:04;101234.97;;;14.45;60.67
4834;BME280;12895;51.064;7.028;2023-05-29T03:09:50;101243.03;;;14.43;60.66
4834;BME280;12895;51.064;7.028;2023-05-29T03:12:37;101238.88;;;14.33;60.56
4834;BME280;12895;51.064;7.028;2023-05-29T03:15:23;101242.84;;;14.27;61.56
4834;BME280;12895;51.064;7.028;2023-05-29T03:18:09;101237.97;;;14.22;61.84
4834;BME280;12895;51.064;7.028;2023-05-29T03:20:54;101240.47;;;14.20;61.67
4834;BME280;12895;51.064;7.028;2023-05-29T03:23:41;101247.56;;;14.21;60.95
4834;BME280;12895;51.064;7.028;2023-05-29T03:26:26;101251.78;;;14.16;61.41
4834;BME280;12895;51.064;7.028;2023-05-29T03:29:12;101249.50;;;14.15;60.95
4834;BME280;12895;51.064;7.028;2023-05-29T03:31:57;101243.50;;;14.02;61.26
4834;BME280;12895;51.064;7.028;2023-05-29T03:34:47;101242.47;;;13.99;61.61
4834;BME280;12895;51.064;7.028;2023-05-29T03:37:32;101246.72;;;13.95;61.45
4834;BME280;12895;51.064;7.028;2023-05-29T03:40:19;101251.16;;;13.87;62.04
4834;BME280;12895;51.064;7.028;2023-05-29T03:43:04;101250.38;;;13.86;62.24
4834;BME280;12895;51.064;7.028;2023-05-29T03:45:50;101246.56;;;13.84;62.12
4834;BME280;12895;51.064;7.028;2023-05-29T03:48:35;101246.56;;;13.84;62.21
4834;BME280;12895;51.064;7.028;2023-05-29T03:51:21;101236.97;;;13.85;63.13
4834;BME280;12895;51.064;7.028;2023-05-29T03:54:07;101246.56;;;13.84;63.22
4834;BME280;12895;51.064;7.028;2023-05-29T03:56:55;101255.19;;;13.86;62.66
4834;BME280;12895;51.064;7.028;2023-05-29T03:59:43;101255.94;;;13.86;62.36
4834;BME280;12895;51.064;7.028;2023-05-29T04:02:29;101262.00;;;13.85;62.78
4834;BME280;12895;51.064;7.028;2023-05-29T04:05:15;101263.25;;;13.84;62.84
4834;BME280;12895;51.064;7.028;2023-05-29T04:08:00;101266.31;;;13.86;63.14
4834;BME280;12895;51.064;7.028;2023-05-29T04:10:48;101265.78;;;13.87;63.48
4834;BME280;12895;51.064;7.028;2023-05-29T04:13:40;101268.56;;;13.87;62.43
4834;BME280;12895;51.064;7.028;2023-05-29T04:16:25;101271.84;;;13.86;63.00
4834;BME280;12895;51.064;7.028;2023-05-29T04:19:11;101270.34;;;13.85;62.78
4834;BME280;12895;51.064;7.028;2023-05-29T04:21:57;101270.59;;;13.87;62.95
4834;BME280;12895;51.064;7.028;2023-05-29T04:24:43;101269.34;;;13.88;63.13
4834;BME280;12895;51.064;7.028;2023-05-29T04:27:28;101275.19;;;13.90;62.72
4834;BME280;12895;51.064;7.028;2023-05-29T04:30:16;101281.03;;;13.92;62.59
4834;BME280;12895;51.064;7.028;2023-05-29T04:33:04;101282.28;;;13.91;62.83
4834;BME280;12895;51.064;7.028;2023-05-29T04:35:52;101284.09;;;13.94;62.60
4834;BME280;12895;51.064;7.028;2023-05-29T04:38:37;101294.72;;;13.95;63.48
4834;BME280;12895;51.064;7.028;2023-05-29T04:41:24;101290.75;;;14.02;63.23
4834;BME280;12895;51.064;7.028;2023-05-29T04:44:14;101302.47;;;14.06;62.77
4834;BME280;12895;51.064;7.028;2023-05-29T04:47:05;101304.53;;;14.11;62.56
4834;BME280;12895;51.064;7.028;2023-05-29T04:49:50;101303.28;;;14.12;62.48
4834;BME280;12895;51.064;7.028;2023-05-29T04:52:36;101303.84;;;14.16;63.34
4834;BME280;12895;51.064;7.028;2023-05-29T04:55:24;101298.41;;;14.21;63.11
4834;BME280;12895;51.064;7.028;2023-05-29T04:58:10;101307.00;;;14.23;62.32
4834;BME280;12895;51.064;7.028;2023-05-29T05:00:57;101309.31;;;14.25;61.52
4834;BME280;12895;51.064;7.028;2023-05-29T05:03:48;101309.31;;;14.25;62.48
4834;BME280;12895;51.064;7.028;2023-05-29T05:06:33;101302.56;;;14.31;61.72
4834;BME280;12895;51.064;7.028;2023-05-29T05:09:18;101297.75;;;14.32;61.22
4834;BME280;12895;51.064;7.028;2023-05-29T05:12:05;101303.31;;;14.32;62.16
4834;BME280;12895;51.064;7.028;2023-05-29T05:14:51;101306.88;;;14.32;61.69
4834;BME280;12895;51.064;7.028;2023-05-29T05:17:36;101315.75;;;14.36;61.25
4834;BME280;12895;51.064;7.028;2023-05-29T05:20:23;101315.84;;;14.42;61.22
4834;BME280;12895;51.064;7.028;2023-05-29T05:23:14;101313.63;;;14.46;60.78
4834;BME280;12895;51.064;7.028;2023-05-29T05:25:59;101316.69;;;14.48;60.92
4834;BME280;12895;51.064;7.028;2023-05-29T05:28:45;101325.88;;;14.54;61.35
4834;BME280;12895;51.064;7.028;2023-05-29T05:31:30;101329.47;;;14.60;60.50
4834;BME280;12895;51.064;7.028;2023-05-29T05:34:16;101322.94;;;14.63;60.19
4834;BME280;12895;51.064;7.028;2023-05-29T05:37:03;101329.81;;;14.67;60.45
4834;BME280;12895;51.064;7.028;2023-05-29T05:39:49;101331.81;;;14.67;60.06
4834;BME280;12895;51.064;7.028;2023-05-29T05:42:38;101337.66;;;14.69;59.87
4834;BME280;12895;51.064;7.028;2023-05-29T05:45:27;101337.25;;;14.76;59.00
4834;BME280;12895;51.064;7.028;2023-05-29T05:48:13;101340.28;;;14.78;60.77
4834;BME280;12895;51.064;7.028;2023-05-29T05:50:58;101345.44;;;14.85;59.84
4834;BME280;12895;51.064;7.028;2023-05-29T05:53:45;101329.34;;;14.94;58.09
4834;BME280;12895;51.064;7.028;2023-05-29T05:56:31;101334.91;;;14.94;59.09
4834;BME280;12895;51.064;7.028;2023-05-29T05:59:17;101336.94;;;14.94;58.98
4834;BME280;12895;51.064;7.028;2023-05-29T06:02:03;101335.97;;;14.97;59.14
4834;BME280;12895;51.064;7.028;2023-05-29T06:04:49;101332.47;;;15.02;58.93
4834;BME280;12895;51.064;7.028;2023-05-29T06:07:35;101344.16;;;15.06;58.84
4834;BME280;12895;51.064;7.028;2023-05-29T06:10:22;101338.16;;;15.13;59.46
4834;BME280;12895;51.064;7.028;2023-05-29T06:13:07;101342.72;;;15.16;58.33
4834;BME280;12895;51.064;7.028;2023-05-29T06:16:02;101343.81;;;15.24;58.10
4834;BME280;12895;51.064;7.028;2023-05-29T06:18:47;101352.22;;;15.29;58.67
4834;BME280;12895;51.064;7.028;2023-05-29T06:21:35;101352.09;;;15.38;59.07
4834;BME280;12895;51.064;7.028;2023-05-29T06:24:21;101352.97;;;15.50;58.78
4834;BME280;12895;51.064;7.028;2023-05-29T06:27:08;101359.06;;;15.54;57.27
4834;BME280;12895;51.064;7.028;2023-05-29T06:29:53;101361.16;;;15.59;58.30
4834;BME280;12895;51.064;7.028;2023-05-29T06:32:39;101357.38;;;15.62;57.25
4834;BME280;12895;51.064;7.028;2023-05-29T06:35:26;101357.47;;;15.73;57.27
4834;BME280;12895;51.064;7.028;2023-05-29T06:38:13;101352.91;;;15.75;58.18
4834;BME280;12895;51.064;7.028;2023-05-29T06:40:58;101363.84;;;15.79;56.47
4834;BME280;12895;51.064;7.028;2023-05-29T06:43:45;101355.94;;;15.72;56.61
4834;BME280;12895;51.064;7.028;2023-05-29T06:46:31;101350.13;;;15.75;56.54
4834;BME280;12895;51.064;7.028;2023-05-29T06:49:18;101362.13;;;15.87;57.04
4834;BME280;12895;51.064;7.028;2023-05-29T06:52:04;101365.53;;;16.02;56.28
4834;BME280;12895;51.064;7.028;2023-05-29T06:55:13;101359.22;;;16.07;55.58
4834;BME280;12895;51.064;7.028;2023-05-29T06:57:59;101365.34;;;16.11;56.13
4834;BME280;12895;51.064;7.028;2023-05-29T07:00:46;101361.56;;;16.19;56.30
4834;BME280;12895;51.064;7.028;2023-05-29T07:04:01;101361.97;;;16.38;56.36
4834;BME280;12895;51.064;7.028;2023-05-29T07:06:47;101349.56;;;16.44;55.64
4834;BME280;12895;51.064;7.028;2023-05-29T07:09:32;101354.47;;;16.55;55.68
4834;BME280;12895;51.064;7.028;2023-05-29T07:12:18;101364.59;;;16.58;55.73
4834;BME280;12895;51.064;7.028;2023-05-29T07:15:04;101360.31;;;16.62;54.71
4834;BME280;12895;51.064;7.028;2023-05-29T07:17:52;101354.47;;;16.55;54.94
4834;BME280;12895;51.064;7.028;2023-05-29T07:20:43;101360.59;;;16.69;54.62
4834;BME280;12895;51.064;7.028;2023-05-29T07:23:31;101355.81;;;16.75;54.38
4834;BME280;12895;51.064;7.028;2023-05-29T07:26:17;101350.97;;;16.81;54.61
4834;BME280;12895;51.064;7.028;2023-05-29T07:29:02;101347.22;;;16.90;55.33
4834;BME280;12895;51.064;7.028;2023-05-29T07:31:48;101357.41;;;17.04;54.81
4834;BME280;12895;51.064;7.028;2023-05-29T07:34:34;101353.63;;;17.12;54.33
4834;BME280;12895;51.064;7.028;2023-05-29T07:37:20;101357.19;;;17.18;53.60
4834;BME280;12895;51.064;7.028;2023-05-29T07:40:06;101354.94;;;17.33;53.48
4834;BME280;12895;51.064;7.028;2023-05-29T07:43:22;101361.81;;;17.43;52.88
4834;BME280;12895;51.064;7.028;2023-05-29T07:46:13;101363.09;;;17.42;52.40
4834;BME280;12895;51.064;7.028;2023-05-29T07:49:00;101357.50;;;17.48;52.34
4834;BME280;12895;51.064;7.028;2023-05-29T07:51:48;101363.34;;;17.55;53.13
4834;BME280;12895;51.064;7.028;2023-05-29T07:54:33;101383.16;;;17.68;52.84
4834;BME280;12895;51.064;7.028;2023-05-29T07:57:20;101378.34;;;17.63;52.13
4834;BME280;12895;51.064;7.028;2023-05-29T08:00:07;101387.78;;;17.66;52.25
4834;BME280;12895;51.064;7.028;2023-05-29T08:03:03;101388.00;;;17.73;52.20
4834;BME280;12895;51.064;7.028;2023-05-29T08:05:48;101380.38;;;17.74;52.46
4834;BME280;12895;51.064;7.028;2023-05-29T08:08:37;101387.50;;;17.80;52.10
4834;BME280;12895;51.064;7.028;2023-05-29T08:11:22;101377.31;;;17.77;51.50
4834;BME280;12895;51.064;7.028;2023-05-29T08:14:08;101382.66;;;17.86;51.56
4834;BME280;12895;51.064;7.028;2023-05-29T08:16:56;101388.00;;;17.90;51.14
4834;BME280;12895;51.064;7.028;2023-05-29T08:19:41;101387.25;;;17.89;51.44
4834;BME280;12895;51.064;7.028;2023-05-29T08:22:28;101390.31;;;17.91;51.23
4834;BME280;12895;51.064;7.028;2023-05-29T08:25:14;101388.25;;;17.97;52.11
4834;BME280;12895;51.064;7.028;2023-05-29T08:28:01;101381.63;;;18.11;51.53
4834;BME280;12895;51.064;7.028;2023-05-29T08:30:46;101375.22;;;18.22;50.64
4834;BME280;12895;51.064;7.028;2023-05-29T08:33:31;101376.53;;;18.15;52.25
4834;BME280;12895;51.064;7.028;2023-05-29T08:36:17;101383.16;;;18.12;52.03
4834;BME280;12895;51.064;7.028;2023-05-29T08:39:05;101377.56;;;18.12;51.89
4834;BME280;12895;51.064;7.028;2023-05-29T08:42:00;101386.41;;;18.27;52.60
4834;BME280;12895;51.064;7.028;2023-05-29T08:44:47;101385.69;;;18.32;50.94
4834;BME280;12895;51.064;7.028;2023-05-29T08:47:33;101376.25;;;18.35;51.09
4834;BME280;12895;51.064;7.028;2023-05-29T08:50:19;101384.59;;;18.57;50.93
4834;BME280;12895;51.064;7.028;2023-05-29T08:53:05;101381.50;;;18.72;50.34
4834;BME280;12895;51.064;7.028;2023-05-29T08:55:51;101387.88;;;18.61;50.46
4834;BME280;12895;51.064;7.028;2023-05-29T08:58:37;101390.59;;;18.83;51.29
4834;BME280;12895;51.064;7.028;2023-05-29T09:01:23;101387.31;;;18.79;50.42
4834;BME280;12895;51.064;7.028;2023-05-29T09:04:08;101390.53;;;18.94;50.30
4834;BME280;12895;51.064;7.028;2023-05-29T09:06:54;101391.75;;;19.04;49.59
4834;BME280;12895;51.064;7.028;2023-05-29T09:09:39;101397.63;;;19.06;49.72
4834;BME280;12895;51.064;7.028;2023-05-29T09:12:26;101387.91;;;19.18;49.18
4834;BME280;12895;51.064;7.028;2023-05-29T09:15:18;101398.97;;;19.40;48.28
4834;BME280;12895;51.064;7.028;2023-05-29T09:18:04;101379.19;;;19.27;48.48
4834;BME280;12895;51.064;7.028;2023-05-29T09:20:50;101387.25;;;19.42;48.75
4834;BME280;12895;51.064;7.028;2023-05-29T09:23:35;101387.06;;;19.34;49.66
4834;BME280;12895;51.064;7.028;2023-05-29T09:26:21;101377.97;;;19.52;49.41
4834;BME280;12895;51.064;7.028;2023-05-29T09:29:07;101389.59;;;19.67;48.78
4834;BME280;12895;51.064;7.028;2023-05-29T09:31:55;101383.94;;;19.72;49.01
4834;BME280;12895;51.064;7.028;2023-05-29T09:34:42;101391.81;;;19.79;48.88
4834;BME280;12895;51.064;7.028;2023-05-29T09:37:27;101399.50;;;19.73;48.54
4834;BME280;12895;51.064;7.028;2023-05-29T09:40:13;101396.06;;;19.86;48.06
4834;BME280;12895;51.064;7.028;2023-05-29T09:43:03;101397.06;;;20.18;48.22
4834;BME280;12895;51.064;7.028;2023-05-29T09:45:51;101395.50;;;20.22;47.20
4834;BME280;12895;51.064;7.028;2023-05-29T09:48:38;101394.75;;;20.22;47.52
4834;BME280;12895;51.064;7.028;2023-05-29T09:51:23;101400.72;;;20.37;46.62
4834;BME280;12895;51.064;7.028;2023-05-29T09:54:13;101398.72;;;20.32;47.75
4834;BME280;12895;51.064;7.028;2023-05-29T09:57:00;101401.00;;;20.33;47.35
4834;BME280;12895;51.064;7.028;2023-05-29T09:59:49;101389.97;;;20.41;47.80
4834;BME280;12895;51.064;7.028;2023-05-29T10:02:35;101388.31;;;20.51;47.00
4834;BME280;12895;51.064;7.028;2023-05-29T10:05:22;101387.69;;;20.58;46.41
4834;BME280;12895;51.064;7.028;2023-05-29T10:08:10;101387.25;;;20.54;47.79
4834;BME280;12895;51.064;7.028;2023-05-29T10:11:01;101381.94;;;20.50;46.94
4834;BME280;12895;51.064;7.028;2023-05-29T10:13:53;101397.38;;;20.38;48.75
4834;BME280;12895;51.064;7.028;2023-05-29T10:16:41;101389.53;;;20.55;48.40
4834;BME280;12895;51.064;7.028;2023-05-29T10:19:29;101390.50;;;20.82;45.96
4834;BME280;12895;51.064;7.028;2023-05-29T10:22:21;101389.00;;;20.99;45.50
4834;BME280;12895;51.064;7.028;2023-05-29T10:25:09;101388.41;;;21.06;45.39
4834;BME280;12895;51.064;7.028;2023-05-29T10:27:56;101389.94;;;20.89;47.27
4834;BME280;12895;51.064;7.028;2023-05-29T10:30:47;101393.66;;;20.73;47.20
4834;BME280;12895;51.064;7.028;2023-05-29T10:33:43;101387.75;;;20.76;46.57
4834;BME280;12895;51.064;7.028;2023-05-29T10:36:37;101392.81;;;21.02;44.94
4834;BME280;12895;51.064;7.028;2023-05-29T10:39:26;101390.97;;;20.86;45.70
4834;BME280;12895;51.064;7.028;2023-05-29T10:42:45;101390.44;;;21.06;46.03
4834;BME280;12895;51.064;7.028;2023-05-29T10:45:50;101384.91;;;21.19;47.93
4834;BME280;12895;51.064;7.028;2023-05-29T10:48:42;101385.97;;;21.16;46.00
4834;BME280;12895;51.064;7.028;2023-05-29T10:51:28;101387.94;;;21.21;46.06
4834;BME280;12895;51.064;7.028;2023-05-29T10:54:15;101383.22;;;21.29;46.10
4834;BME280;12895;51.064;7.028;2023-05-29T10:57:02;101393.97;;;21.62;46.13
4834;BME280;12895;51.064;7.028;2023-05-29T10:59:50;101379.59;;;21.97;43.83
4834;BME280;12895;51.064;7.028;2023-05-29T11:02:41;101387.59;;;21.93;44.99
4834;BME280;12895;51.064;7.028;2023-05-29T11:05:27;101386.53;;;22.09;43.26
4834;BME280;12895;51.064;7.028;2023-05-29T11:08:13;101382.88;;;22.14;43.06
4834;BME280;12895;51.064;7.028;2023-05-29T11:10:59;101382.31;;;22.15;43.44
4834;BME280;12895;51.064;7.028;2023-05-29T11:13:53;101369.09;;;21.97;43.40
4834;BME280;12895;51.064;7.028;2023-05-29T11:16:39;101372.28;;;22.33;43.31
4834;BME280;12895;51.064;7.028;2023-05-29T11:19:24;101366.41;;;22.31;44.55
4834;BME280;12895;51.064;7.028;2023-05-29T11:22:20;101370.53;;;22.17;44.66
4834;BME280;12895;51.064;7.028;2023-05-29T11:25:08;101363.50;;;22.62;44.33
4834;BME280;12895;51.064;7.028;2023-05-29T11:27:54;101352.03;;;22.60;42.90
4834;BME280;12895;51.064;7.028;2023-05-29T11:30:47;101362.84;;;22.56;43.79
4834;BME280;12895;51.064;7.028;2023-05-29T11:33:35;101353.63;;;22.81;43.37
4834;BME280;12895;51.064;7.028;2023-05-29T11:36:25;101364.91;;;22.81;42.81
4834;BME280;12895;51.064;7.028;2023-05-29T11:39:11;101365.31;;;22.85;41.69
4834;BME280;12895;51.064;7.028;2023-05-29T11:41:56;101364.53;;;22.98;40.81
4834;BME280;12895;51.064;7.028;2023-05-29T11:44:41;101360.75;;;22.95;41.08
4834;BME280;12895;51.064;7.028;2023-05-29T11:47:28;101362.09;;;22.81;42.63
4834;BME280;12895;51.064;7.028;2023-05-29T11:50:18;101363.22;;;22.53;42.17
4834;BME280;12895;51.064;7.028;2023-05-29T11:53:06;101361.22;;;22.61;44.33
4834;BME280;12895;51.064;7.028;2023-05-29T11:55:51;101359.00;;;23.05;42.73
4834;BME280;12895;51.064;7.028;2023-05-29T11:58:37;101355.75;;;23.14;42.25
4834;BME280;12895;51.064;7.028;2023-05-29T12:01:23;101362.22;;;23.09;41.98
4834;BME280;12895;51.064;7.028;2023-05-29T12:04:16;101354.31;;;23.08;41.44
4834;BME280;12895;51.064;7.028;2023-05-29T12:07:01;101344.88;;;23.18;39.88
4834;BME280;12895;51.064;7.028;2023-05-29T12:09:47;101361.19;;;23.33;40.11
4834;BME280;12895;51.064;7.028;2023-05-29T12:12:37;101358.34;;;22.99;41.19
4834;BME280;12895;51.064;7.028;2023-05-29T12:15:24;101355.59;;;22.73;41.37
4834;BME280;12895;51.064;7.028;2023-05-29T12:18:09;101351.72;;;22.64;41.74
4834;BME280;12895;51.064;7.028;2023-05-29T12:21:00;101348.53;;;22.80;41.35
4834;BME280;12895;51.064;7.028;2023-05-29T12:23:46;101349.22;;;23.19;41.02
4834;BME280;12895;51.064;7.028;2023-05-29T12:26:31;101347.38;;;23.42;40.12
4834;BME280;12895;51.064;7.028;2023-05-29T12:29:17;101347.56;;;23.11;40.81
4834;BME280;12895;51.064;7.028;2023-05-29T12:32:03;101350.88;;;23.15;40.70
4834;BME280;12895;51.064;7.028;2023-05-29T12:34:49;101359.53;;;23.37;41.42
4834;BME280;12895;51.064;7.028;2023-05-29T12:37:36;101356.50;;;23.89;39.77
4834;BME280;12895;51.064;7.028;2023-05-29T12:40:22;101350.09;;;24.17;37.88
4834;BME280;12895;51.064;7.028;2023-05-29T12:43:08;101359.63;;;23.65;39.14
4834;BME280;12895;51.064;7.028;2023-05-29T12:45:54;101359.56;;;23.58;40.22
4834;BME280;12895;51.064;7.028;2023-05-29T12:48:40;101360.06;;;23.69;38.89
4834;BME280;12895;51.064;7.028;2023-05-29T12:51:27;101361.09;;;23.59;40.26
4834;BME280;12895;51.064;7.028;2023-05-29T12:54:15;101362.66;;;23.67;39.50
4834;BME280;12895;51.064;7.028;2023-05-29T12:57:00;101361.16;;;23.66;39.88
4834;BME280;12895;51.064;7.028;2023-05-29T12:59:45;101368.19;;;23.52;39.69
4834;BME280;12895;51.064;7.028;2023-05-29T13:02:31;101361.03;;;23.51;39.98
4834;BME280;12895;51.064;7.028;2023-05-29T13:05:16;101349.38;;;23.75;38.33
4834;BME280;12895;51.064;7.028;2023-05-29T13:08:03;101357.91;;;24.03;37.52
4834;BME280;12895;51.064;7.028;2023-05-29T13:10:50;101355.09;;;24.03;39.12
4834;BME280;12895;51.064;7.028;2023-05-29T13:13:35;101363.28;;;23.73;38.73
4834;BME280;12895;51.064;7.028;2023-05-29T13:16:21;101359.34;;;23.35;39.09
4834;BME280;12895;51.064;7.028;2023-05-29T13:19:06;101353.03;;;23.42;39.28
4834;BME280;12895;51.064;7.028;2023-05-29T13:21:51;101351.16;;;23.65;40.30
4834;BME280;12895;51.064;7.028;2023-05-29T13:24:37;101359.34;;;23.76;39.21
4834;BME280;12895;51.064;7.028;2023-05-29T13:27:23;101359.53;;;23.91;38.05
4834;BME280;12895;51.064;7.028;2023-05-29T13:30:10;101357.72;;;24.01;38.47
4834;BME280;12895;51.064;7.028;2023-05-29T13:32:55;101358.53;;;24.09;40.19
4834;BME280;12895;51.064;7.028;2023-05-29T13:35:40;101352.06;;;24.29;37.37
4834;BME280;12895;51.064;7.028;2023-05-29T13:38:25;101353.00;;;24.95;36.51
4834;BME280;12895;51.064;7.028;2023-05-29T13:41:11;101346.19;;;24.91;37.47
4834;BME280;12895;51.064;7.028;2023-05-29T13:43:57;101352.03;;;25.43;35.45
4834;BME280;12895;51.064;7.028;2023-05-29T13:46:42;101352.66;;;25.06;37.87
4834;BME280;12895;51.064;7.028;2023-05-29T13:49:28;101356.69;;;25.26;36.83
4834;BME280;12895;51.064;7.028;2023-05-29T13:52:13;101362.59;;;25.50;35.85
4834;BME280;12895;51.064;7.028;2023-05-29T13:55:00;101359.03;;;24.99;36.16
4834;BME280;12895;51.064;7.028;2023-05-29T13:57:50;101353.28;;;24.77;37.28
4834;BME280;12895;51.064;7.028;2023-05-29T14:00:38;101348.31;;;25.05;37.43
4834;BME280;12895;51.064;7.028;2023-05-29T14:03:23;101355.22;;;24.89;36.16
4834;BME280;12895;51.064;7.028;2023-05-29T14:06:12;101353.13;;;25.33;35.58
4834;BME280;12895;51.064;7.028;2023-05-29T14:08:57;101341.47;;;25.66;35.40
4834;BME280;12895;51.064;7.028;2023-05-29T14:11:42;101346.00;;;25.84;34.76
4834;BME280;12895;51.064;7.028;2023-05-29T14:14:28;101335.44;;;25.84;35.69
4834;BME280;12895;51.064;7.028;2023-05-29T14:17:15;101335.31;;;26.67;33.72
4834;BME280;12895;51.064;7.028;2023-05-29T14:20:00;101338.25;;;27.55;32.06
4834;BME280;12895;51.064;7.028;2023-05-29T14:22:48;101336.81;;;28.98;30.05
4834;BME280;12895;51.064;7.028;2023-05-29T14:25:34;101344.50;;;29.04;29.79
4834;BME280;12895;51.064;7.028;2023-05-29T14:28:19;101348.44;;;30.07;28.34
4834;BME280;12895;51.064;7.028;2023-05-29T14:31:04;101337.69;;;30.91;26.43
4834;BME280;12895;51.064;7.028;2023-05-29T14:33:51;101332.84;;;31.03;26.47
4834;BME280;12895;51.064;7.028;2023-05-29T14:36:36;101339.97;;;31.82;24.88
4834;BME280;12895;51.064;7.028;2023-05-29T14:39:22;101338.34;;;31.79;25.69
4834;BME280;12895;51.064;7.028;2023-05-29T14:42:07;101345.88;;;32.47;23.81
4834;BME280;12895;51.064;7.028;2023-05-29T14:44:52;101342.97;;;32.68;25.01